Time;durP1;ratioP1;P1;durP2;ratioP2;P2;SDS_P1;SDS_P2;PMS_P1;PMS_P2;Temp;Humidity;BMP_temperature;BMP_pressure;BME280_temperature;BME280_humidity;BME280_pressure;Samples;Min_cycle;Max_cycle;Signal;HPM_P1;HPM_P2
2021/10/25 00:00:50;;;;;;;4.20;2.62;;;;;;;16.79;42.87;101247.15;1748636;80;21039;-68
2021/10/25 00:03:16;;;;;;;2.75;1.92;;;;;;;16.76;42.81;101254.19;1753255;80;21119;-67
2021/10/25 00:05:43;;;;;;;3.83;2.50;;;;;;;16.71;42.72;101251.52;1750365;81;21070;-69
2021/10/25 00:08:13;;;;;;;3.30;2.33;;;;;;;16.68;42.71;101253.19;1732272;81;21130;-68
2021/10/25 00:10:41;;;;;;;3.62;2.37;;;;;;;16.64;42.62;101251.03;1730110;82;21612;-68
2021/10/25 00:13:08;;;;;;;4.05;2.42;;;;;;;16.61;42.56;101256.25;1747345;80;21057;-69
2021/10/25 00:15:36;;;;;;;3.20;2.20;;;;;;;16.58;42.54;101251.73;1745345;80;21033;-68
2021/10/25 00:18:05;;;;;;;3.72;2.52;;;;;;;16.54;42.50;101255.25;1730442;81;21080;-68
2021/10/25 00:20:33;;;;;;;3.77;2.12;;;;;;;16.51;42.43;101255.09;1735701;80;22019;-70
2021/10/25 00:23:01;;;;;;;3.50;2.37;;;;;;;16.47;42.39;101253.73;1732048;82;21098;-69
2021/10/25 00:25:27;;;;;;;2.70;1.98;;;;;;;16.45;42.36;101250.89;1749614;80;21026;-69
2021/10/25 00:27:54;;;;;;;2.90;2.08;;;;;;;16.43;42.31;101248.89;1736600;80;21069;-70
2021/10/25 00:30:20;;;;;;;5.22;2.47;;;;;;;16.39;42.25;101255.60;1686742;81;21064;-69
2021/10/25 00:32:47;;;;;;;3.67;2.58;;;;;;;16.36;42.21;101256.79;1733937;81;21120;-69
2021/10/25 00:35:13;;;;;;;5.00;2.22;;;;;;;16.34;42.19;101260.63;1711892;82;21076;-70
2021/10/25 00:37:40;;;;;;;3.55;2.10;;;;;;;16.31;42.15;101263.16;1707097;82;21619;-68
2021/10/25 00:40:08;;;;;;;2.90;2.20;;;;;;;16.28;42.13;101261.66;1730932;81;21703;-68
2021/10/25 00:42:37;;;;;;;3.67;2.17;;;;;;;16.25;42.09;101256.62;1721888;81;21038;-69
2021/10/25 00:54:52;;;;;;;3.80;2.00;;;;;;;16.12;42.01;101257.63;1733783;81;21540;-68
2021/10/25 00:57:18;;;;;;;4.42;2.42;;;;;;;16.03;42.06;101251.44;1734489;81;21563;-69
2021/10/25 00:59:45;;;;;;;5.00;2.20;;;;;;;15.96;42.07;101254.44;1731553;80;21563;-68
2021/10/25 01:02:11;;;;;;;2.92;1.87;;;;;;;15.95;42.08;101257.28;1750543;80;21145;-69
2021/10/25 01:05:24;;;;;;;2.70;2.40;;;;;;;15.96;42.07;101257.63;1864870;76;28151;-68
2021/10/25 01:07:51;;;;;;;3.40;2.50;;;;;;;15.91;42.03;101260.28;1823920;77;21590;-67
2021/10/25 01:10:18;;;;;;;4.20;2.20;;;;;;;15.90;41.99;101266.66;1852039;77;22948;-68
2021/10/25 01:12:45;;;;;;;3.85;3.17;;;;;;;15.89;41.96;101265.48;1823402;78;21875;-67
2021/10/25 01:15:12;;;;;;;3.10;2.30;;;;;;;15.86;41.96;101266.66;1823379;78;21490;-68
2021/10/25 01:17:39;;;;;;;2.50;2.27;;;;;;;15.85;41.91;101266.31;1807699;77;22175;-69
2021/10/25 01:20:08;;;;;;;4.67;2.62;;;;;;;15.85;41.90;101269.50;1838654;77;21074;-67
2021/10/25 01:22:37;;;;;;;3.70;2.42;;;;;;;15.83;41.87;101264.30;1822409;77;21102;-69
2021/10/25 01:25:04;;;;;;;4.20;3.30;;;;;;;15.82;41.84;101268.47;1823519;78;20980;-68
2021/10/25 01:27:33;;;;;;;4.80;2.87;;;;;;;15.80;41.82;101272.69;1824862;77;21449;-68
2021/10/25 01:30:00;;;;;;;3.00;2.30;;;;;;;15.78;41.80;101269.33;1783905;78;21033;-68
2021/10/25 01:32:26;;;;;;;3.25;2.65;;;;;;;15.77;41.75;101270.32;1768107;80;21045;-68
2021/10/25 01:34:52;;;;;;;2.83;2.42;;;;;;;15.77;41.74;101278.36;1763857;80;21104;-68
2021/10/25 01:37:19;;;;;;;4.78;2.70;;;;;;;15.75;41.71;101287.06;1786381;80;21024;-67
2021/10/25 01:39:45;;;;;;;2.47;2.12;;;;;;;15.73;41.69;101287.22;1755420;78;21115;-68
2021/10/25 01:42:12;;;;;;;2.85;2.47;;;;;;;15.72;41.69;101290.89;1731987;82;21032;-70
2021/10/25 01:44:39;;;;;;;2.83;2.25;;;;;;;15.71;41.65;101295.89;1796050;78;21047;-67
2021/10/25 01:47:07;;;;;;;2.87;2.30;;;;;;;15.70;41.64;101300.07;1788534;78;21228;-66
2021/10/25 01:49:35;;;;;;;2.75;2.25;;;;;;;15.69;41.63;101305.11;1738278;81;21008;-68
2021/10/25 01:52:05;;;;;;;4.15;2.42;;;;;;;15.68;41.59;101307.44;1759657;80;21013;-69
2021/10/25 01:54:32;;;;;;;3.77;2.90;;;;;;;15.63;41.58;101306.59;1771278;78;21096;-68
2021/10/25 01:56:58;;;;;;;3.58;2.52;;;;;;;15.63;41.56;101307.11;1771035;78;21151;-68
2021/10/25 01:59:25;;;;;;;2.40;2.20;;;;;;;15.63;41.57;101312.47;1733692;80;22222;-67
2021/10/25 02:01:51;;;;;;;3.50;2.62;;;;;;;15.60;41.53;101314.95;1778052;78;21510;-68
2021/10/25 02:04:18;;;;;;;3.47;2.37;;;;;;;15.59;41.50;101307.93;1785840;78;22010;-68
2021/10/25 02:06:45;;;;;;;2.83;2.40;;;;;;;15.58;41.49;101308.92;1733254;79;21072;-67
2021/10/25 02:09:12;;;;;;;3.27;2.55;;;;;;;15.57;41.48;101317.11;1745267;80;21079;-67
2021/10/25 02:11:38;;;;;;;3.52;2.77;;;;;;;15.54;41.44;101312.41;1759120;80;21190;-68
2021/10/25 02:14:07;;;;;;;2.90;2.60;;;;;;;15.54;41.46;101315.60;1719360;81;21059;-68
2021/10/25 02:16:33;;;;;;;2.42;2.15;;;;;;;15.52;41.43;101315.76;1771812;78;20986;-68
2021/10/25 02:19:00;;;;;;;3.10;2.40;;;;;;;15.50;41.42;101315.08;1791686;78;21049;-68
2021/10/25 02:21:28;;;;;;;2.77;2.27;;;;;;;15.48;41.41;101314.41;1790815;80;21519;-68
2021/10/25 02:23:55;;;;;;;2.90;2.30;;;;;;;15.46;41.40;101319.09;1784579;78;21138;-70
2021/10/25 02:26:22;;;;;;;3.33;2.80;;;;;;;15.45;41.39;101320.58;1763349;80;21016;-69
2021/10/25 02:28:48;;;;;;;2.77;2.47;;;;;;;15.43;41.41;101316.75;1763841;80;20996;-69
2021/10/25 02:31:14;;;;;;;2.50;2.10;;;;;;;15.43;41.39;101322.59;1788948;80;21040;-68
2021/10/25 02:33:41;;;;;;;3.05;2.52;;;;;;;15.41;41.36;101325.42;1788577;79;21008;-68
2021/10/25 02:36:08;;;;;;;2.50;2.20;;;;;;;15.39;41.36;101332.77;1761182;80;21197;-68
2021/10/25 02:38:37;;;;;;;3.60;2.65;;;;;;;15.39;41.37;101330.61;1772198;80;21084;-69
2021/10/25 02:41:05;;;;;;;2.95;2.37;;;;;;;15.37;41.36;101328.08;1738405;81;21535;-68
2021/10/25 02:43:34;;;;;;;2.52;2.10;;;;;;;15.34;41.36;101331.94;1786247;78;21073;-68
2021/10/25 02:46:00;;;;;;;2.87;2.17;;;;;;;15.33;41.36;101340.95;1794664;78;21142;-68
2021/10/25 02:48:28;;;;;;;3.65;2.42;;;;;;;15.33;41.34;101341.45;1782590;78;21133;-68
2021/10/25 02:50:55;;;;;;;3.62;2.52;;;;;;;15.31;41.35;101336.77;1766950;78;21064;-69
2021/10/25 02:53:21;;;;;;;2.67;2.47;;;;;;;15.29;41.33;101336.09;1784925;78;21005;-68
2021/10/25 02:55:49;;;;;;;3.37;2.67;;;;;;;15.29;41.32;101344.12;1794411;78;21084;-69
2021/10/25 02:58:16;;;;;;;2.50;2.10;;;;;;;15.27;41.32;101349.63;1766524;80;21037;-67
2021/10/25 03:00:44;;;;;;;3.08;2.47;;;;;;;15.26;41.30;101359.15;1772093;80;21073;-68
2021/10/25 03:03:11;;;;;;;2.60;2.25;;;;;;;15.24;41.30;101357.13;1794800;78;21501;-68
2021/10/25 03:05:39;;;;;;;3.58;2.62;;;;;;;15.23;41.30;101358.98;1740716;80;21025;-69
2021/10/25 03:08:07;;;;;;;2.60;2.37;;;;;;;15.21;41.30;101354.80;1741957;80;21049;-68
2021/10/25 03:10:37;;;;;;;3.72;2.12;;;;;;;15.20;41.31;101361.12;1803429;78;21018;-67
2021/10/25 03:13:05;;;;;;;2.67;2.15;;;;;;;15.18;41.28;101355.09;1781426;80;21073;-68
2021/10/25 03:15:31;;;;;;;2.62;2.20;;;;;;;15.16;41.29;101353.08;1764956;80;21002;-69
2021/10/25 03:18:00;;;;;;;2.87;2.27;;;;;;;15.14;41.32;101352.76;1800580;78;21003;-68
2021/10/25 03:20:30;;;;;;;2.90;2.60;;;;;;;15.13;41.29;101359.60;1760426;80;21009;-70
2021/10/25 03:31:34;;;;;;;4.00;2.75;;;;;;;15.04;41.33;101360.55;1790867;80;21055;-69
2021/10/25 03:34:01;;;;;;;3.02;2.30;;;;;;;14.97;41.38;101361.69;1792864;78;21545;-68
2021/10/25 03:36:30;;;;;;;3.10;2.35;;;;;;;14.93;41.45;101369.19;1761442;80;21080;-68
2021/10/25 03:38:57;;;;;;;3.40;2.27;;;;;;;14.92;41.45;101367.49;1748655;80;21064;-69
2021/10/25 03:41:41;;;;;;;3.33;2.70;;;;;;;14.91;41.43;101363.63;1770898;78;21512;-69
2021/10/25 03:44:16;;;;;;;3.15;2.80;;;;;;;14.90;41.43;101368.15;1785979;80;21558;-69
2021/10/25 03:46:46;;;;;;;2.90;2.37;;;;;;;14.89;41.41;101367.82;1757999;78;21034;-68
2021/10/25 03:49:33;;;;;;;3.70;2.75;;;;;;;14.88;41.41;101367.47;1782306;80;21049;-69
2021/10/25 03:51:56;;;;;;;3.25;2.40;;;;;;;14.87;41.41;101367.14;1785505;78;21499;-69
2021/10/25 03:54:47;;;;;;;3.37;2.90;;;;;;;14.86;41.41;101368.63;1737614;81;21288;-69
2021/10/25 03:57:26;;;;;;;2.55;2.35;;;;;;;14.86;41.39;101364.62;1770876;79;21039;-69
2021/10/25 04:13:46;;;;;;;3.35;2.70;;;;;;;14.77;41.36;101372.23;1784905;78;21076;-69
2021/10/25 04:29:40;;;;;;;4.42;2.60;;;;;;;14.66;41.39;101394.70;1749126;80;21069;-69
2021/10/25 04:32:07;;;;;;;4.45;3.10;;;;;;;14.63;41.38;101387.84;1791234;78;21084;-69
2021/10/25 04:34:35;;;;;;;3.70;3.10;;;;;;;14.64;41.41;101390.01;1759147;80;21147;-68
2021/10/25 04:37:03;;;;;;;4.83;3.37;;;;;;;14.62;41.40;101390.19;1793816;78;21087;-68
2021/10/25 04:39:43;;;;;;;3.45;2.92;;;;;;;14.62;41.38;101385.31;1788669;78;20999;-69
2021/10/25 04:42:16;;;;;;;3.15;2.77;;;;;;;14.60;41.38;101381.45;1760431;80;21532;-69
2021/10/25 04:44:40;;;;;;;2.98;2.52;;;;;;;14.60;41.37;101384.12;1792162;78;22018;-69
2021/10/25 04:47:06;;;;;;;4.03;3.02;;;;;;;14.60;41.36;101389.98;1792502;78;21525;-69
2021/10/25 04:49:33;;;;;;;5.42;2.90;;;;;;;14.59;41.36;101385.14;1774962;80;21075;-70
2021/10/25 04:52:04;;;;;;;3.80;3.30;;;;;;;14.60;41.36;101389.47;1738167;80;21020;-69
2021/10/25 04:54:33;;;;;;;4.00;3.30;;;;;;;14.58;41.31;101393.30;1801153;78;21067;-69
2021/10/25 04:56:59;;;;;;;4.33;3.60;;;;;;;14.58;41.31;101398.66;1792427;78;21532;-70
2021/10/25 04:59:26;;;;;;;4.10;3.30;;;;;;;14.58;41.33;101406.17;1794466;78;21198;-69
2021/10/25 05:01:52;;;;;;;3.83;3.12;;;;;;;14.58;41.32;101406.17;1794013;79;21032;-70
2021/10/25 05:04:18;;;;;;;4.28;3.60;;;;;;;14.57;41.32;101413.87;1738609;81;21088;-68
2021/10/25 05:06:45;;;;;;;4.37;3.42;;;;;;;14.57;41.31;101413.87;1758043;80;22278;-69
2021/10/25 05:09:12;;;;;;;4.03;3.12;;;;;;;14.57;41.27;101415.71;1731172;80;21018;-69
2021/10/25 05:11:38;;;;;;;5.03;4.05;;;;;;;14.56;41.26;101416.16;1768071;78;21104;-69
2021/10/25 05:14:04;;;;;;;4.28;3.58;;;;;;;14.56;41.27;101418.83;1763127;80;21689;-70
2021/10/25 05:16:31;;;;;;;4.10;3.62;;;;;;;14.56;41.26;101429.52;1771244;78;21548;-69
2021/10/25 05:19:11;;;;;;;3.92;3.45;;;;;;;14.56;41.25;101432.20;1798347;78;21321;-71
2021/10/25 05:21:40;;;;;;;5.17;3.87;;;;;;;14.55;41.26;101430.53;1810084;78;21079;-69
2021/10/25 05:24:07;;;;;;;5.12;4.17;;;;;;;14.54;41.25;101437.73;1815963;78;21118;-69
2021/10/25 05:26:35;;;;;;;5.35;4.00;;;;;;;14.54;41.25;101436.86;1814308;78;21032;-70
2021/10/25 05:29:01;;;;;;;4.12;3.70;;;;;;;14.55;41.24;101441.23;1786329;78;21504;-69
2021/10/25 05:31:28;;;;;;;5.97;3.98;;;;;;;14.54;41.24;101444.41;1742259;80;21126;-70
2021/10/25 05:33:56;;;;;;;4.28;3.60;;;;;;;14.55;41.22;101446.08;1795943;78;21067;-70
2021/10/25 05:36:23;;;;;;;5.42;4.25;;;;;;;14.54;41.21;101443.08;1756214;80;23345;-69
2021/10/25 05:38:51;;;;;;;4.65;4.12;;;;;;;14.55;41.18;101448.75;1785395;78;21299;-69
2021/10/25 05:41:18;;;;;;;5.78;4.87;;;;;;;14.55;41.20;101455.94;1787863;78;21624;-69
2021/10/25 05:43:44;;;;;;;6.35;4.62;;;;;;;14.56;41.19;101456.27;1758511;79;21235;-69
2021/10/25 05:46:10;;;;;;;5.92;4.65;;;;;;;14.55;41.18;101459.45;1739719;81;21060;-69
2021/10/25 05:48:40;;;;;;;5.80;4.58;;;;;;;14.57;41.16;101463.34;1728379;79;21297;-69
2021/10/25 05:51:07;;;;;;;5.80;4.47;;;;;;;14.57;41.14;101470.03;1764616;79;21040;-69
2021/10/25 05:53:35;;;;;;;6.20;4.72;;;;;;;14.58;41.15;101466.34;1759370;79;21040;-68
2021/10/25 05:56:01;;;;;;;5.67;4.70;;;;;;;14.59;41.13;101463.20;1770007;78;21016;-69
2021/10/25 05:58:30;;;;;;;6.40;4.70;;;;;;;14.59;41.12;101469.38;1734966;81;21017;-69
2021/10/25 06:01:00;;;;;;;6.15;5.10;;;;;;;14.60;41.11;101472.38;1766083;78;21132;-69
2021/10/25 06:03:34;;;;;;;6.17;4.70;;;;;;;14.60;41.09;101475.56;1728174;80;21030;-70
2021/10/25 06:06:01;;;;;;;5.15;4.60;;;;;;;14.61;41.09;101482.61;1733546;78;21064;-70
2021/10/25 06:08:29;;;;;;;6.42;4.78;;;;;;;14.62;41.07;101483.80;1783088;78;21075;-68
2021/10/25 06:10:55;;;;;;;6.12;5.03;;;;;;;14.63;41.06;101479.28;1747334;79;21027;-69
2021/10/25 06:13:36;;;;;;;7.58;5.00;;;;;;;14.64;41.04;101486.30;1776608;78;21096;-68
2021/10/25 06:18:38;;;;;;;6.55;5.30;;;;;;;14.66;41.00;101488.33;1741971;80;21035;-68
2021/10/25 06:21:05;;;;;;;7.42;5.42;;;;;;;14.67;41.01;101485.50;1720246;80;21042;-69
2021/10/25 06:23:33;;;;;;;5.85;4.70;;;;;;;14.68;40.99;101493.02;1748947;80;21119;-68
2021/10/25 06:26:02;;;;;;;5.72;4.50;;;;;;;14.69;40.98;101494.21;1752574;80;21849;-70
2021/10/25 06:28:29;;;;;;;5.60;4.90;;;;;;;14.70;40.96;101495.91;1756032;79;21029;-69
2021/10/25 08:52:56;;;;;;;8.90;6.72;;;;;;;19.10;43.73;101497.65;1770228;77;953997;-64
2021/10/25 08:55:25;;;;;;;11.70;6.60;;;;;;;19.14;43.63;101500.30;1749446;80;21741;-64
2021/10/25 08:57:51;;;;;;;10.68;6.60;;;;;;;19.08;43.56;101473.58;1770707;78;21080;-65
2021/10/25 09:00:37;;;;;;;8.90;6.83;;;;;;;19.22;43.63;101485.44;1784350;78;21217;-64
2021/10/25 09:03:15;;;;;;;8.20;6.22;;;;;;;19.27;43.56;101484.36;1752793;79;21013;-64
2021/10/25 09:05:58;;;;;;;11.65;6.50;;;;;;;19.31;43.57;101488.36;1787367;78;21140;-64
2021/10/25 09:08:27;;;;;;;8.25;6.10;;;;;;;19.35;43.58;101484.27;1795416;78;22026;-65
2021/10/25 09:10:54;;;;;;;8.08;5.58;;;;;;;19.41;43.74;101488.09;1752354;79;21066;-65
2021/10/25 09:13:25;;;;;;;7.40;5.80;;;;;;;19.45;43.73;101490.25;1759836;80;21514;-65
2021/10/25 09:15:55;;;;;;;9.08;5.85;;;;;;;19.52;43.79;101488.16;1738455;80;21056;-64
2021/10/25 09:18:41;;;;;;;7.33;5.97;;;;;;;19.58;43.73;101483.38;1716017;81;21004;-64
2021/10/25 09:21:10;;;;;;;12.00;6.08;;;;;;;19.63;43.83;101484.49;1771931;79;21148;-65
2021/10/25 09:23:40;;;;;;;8.13;5.87;;;;;;;19.70;43.98;101481.05;1729316;81;21093;-64
2021/10/25 09:26:18;;;;;;;8.78;6.03;;;;;;;19.76;43.83;101477.15;1734882;79;21087;-63
2021/10/25 09:28:51;;;;;;;10.08;6.22;;;;;;;19.84;43.88;101482.95;1754057;80;21025;-64
2021/10/25 09:31:25;;;;;;;10.18;5.05;;;;;;;19.90;43.91;101475.45;1742718;80;21085;-65
2021/10/25 09:33:55;;;;;;;6.85;5.37;;;;;;;19.97;43.74;101476.88;1749914;80;21154;-65
2021/10/25 09:36:35;;;;;;;7.60;5.33;;;;;;;20.05;43.66;101475.45;1724261;81;21024;-66
2021/10/25 09:39:06;;;;;;;8.70;5.70;;;;;;;20.12;43.39;101480.39;1753507;80;21054;-64
2021/10/25 09:41:50;;;;;;;8.80;5.20;;;;;;;20.20;42.93;101477.61;1715758;79;21085;-64
2021/10/25 09:50:10;;;;;;;11.08;5.92;;;;;;;20.46;41.95;101470.83;1713218;80;21152;-66
2021/10/25 09:52:40;;;;;;;5.72;4.22;;;;;;;20.54;41.74;101468.00;1724801;81;21105;-65
2021/10/25 09:55:15;;;;;;;7.05;4.70;;;;;;;20.61;41.53;101464.89;1730196;81;21005;-65
2021/10/25 10:00:31;;;;;;;6.65;5.03;;;;;;;20.78;41.17;101456.03;1752198;80;23319;-64
2021/10/25 10:02:57;;;;;;;6.20;4.80;;;;;;;20.87;41.06;101458.59;1772292;79;21589;-63
2021/10/25 10:05:36;;;;;;;6.67;5.15;;;;;;;20.94;40.99;101456.27;1721768;81;21062;-68
2021/10/25 10:07:59;;;;;;;5.33;4.40;;;;;;;21.04;40.88;101455.09;1745012;81;21629;-67
2021/10/25 10:10:31;;;;;;;6.45;5.15;;;;;;;21.12;40.75;101450.89;1727288;80;21485;-67
2021/10/25 10:13:05;;;;;;;6.05;4.78;;;;;;;21.21;40.65;101451.91;1770763;80;21023;-66
2021/10/25 10:15:34;;;;;;;8.18;4.78;;;;;;;21.29;40.55;101453.63;1729264;80;21069;-66
2021/10/25 10:18:13;;;;;;;5.58;4.45;;;;;;;21.36;40.44;101445.05;1751765;79;21029;-66
2021/10/25 10:21:00;;;;;;;5.80;4.83;;;;;;;21.46;40.35;101447.92;1768040;80;21438;-66
2021/10/25 10:23:27;;;;;;;6.40;4.97;;;;;;;21.56;40.17;101443.02;1772956;80;21014;-66
2021/10/25 10:26:05;;;;;;;6.90;4.62;;;;;;;21.65;40.09;101445.84;1716208;80;21052;-67
2021/10/25 10:28:40;;;;;;;6.35;4.37;;;;;;;21.73;39.95;101440.79;1758681;80;21117;-65
2021/10/25 10:31:24;;;;;;;5.80;4.60;;;;;;;21.82;39.82;101432.83;1766392;80;21124;-66
2021/10/25 10:34:00;;;;;;;7.08;4.50;;;;;;;21.90;39.66;101431.30;1764088;79;21072;-65
2021/10/25 10:36:34;;;;;;;4.60;4.20;;;;;;;22.00;39.56;101430.95;1748953;80;21042;-67
2021/10/25 10:39:09;;;;;;;5.58;4.25;;;;;;;22.08;39.45;101425.34;1741767;80;21187;-66
2021/10/25 10:41:57;;;;;;;4.83;3.95;;;;;;;22.18;39.37;101433.08;1702344;80;21267;-64
2021/10/25 10:44:27;;;;;;;4.75;3.98;;;;;;;22.28;39.30;101435.42;1760822;80;21038;-63
2021/10/25 10:47:08;;;;;;;6.30;4.12;;;;;;;22.37;39.17;101421.48;1732331;80;21041;-62
2021/10/25 10:49:38;;;;;;;6.53;4.12;;;;;;;22.46;39.09;101419.94;1762620;80;21097;-63
2021/10/25 10:52:38;;;;;;;5.15;4.03;;;;;;;22.55;38.97;101422.23;1743523;80;21125;-66
2021/10/25 10:55:26;;;;;;;6.15;3.80;;;;;;;22.64;38.90;101421.53;1763962;80;21064;-66
2021/10/25 11:00:35;;;;;;;5.53;3.95;;;;;;;22.85;38.67;101423.21;1757163;80;20994;-66
2021/10/25 11:03:10;;;;;;;4.35;3.60;;;;;;;22.94;38.61;101421.11;1756619;80;21068;-66
2021/10/25 11:05:46;;;;;;;4.25;3.50;;;;;;;23.04;38.54;101419.36;1754336;80;21207;-66
2021/10/25 11:08:17;;;;;;;4.12;3.60;;;;;;;23.14;38.42;101415.69;1754887;79;21101;-65
2021/10/25 11:10:46;;;;;;;4.87;3.83;;;;;;;23.23;38.34;101420.38;1761300;80;21088;-66
2021/10/25 11:13:22;;;;;;;4.87;3.92;;;;;;;23.30;38.24;101413.91;1733135;81;21015;-64
2021/10/25 11:15:55;;;;;;;7.58;4.62;;;;;;;23.41;38.13;101424.63;1746848;80;21061;-65
2021/10/25 11:18:30;;;;;;;5.12;3.67;;;;;;;23.50;38.07;101413.84;1767340;80;21801;-65
2021/10/25 11:21:30;;;;;;;4.33;3.58;;;;;;;23.59;37.97;101411.74;1739953;81;21576;-66
2021/10/25 11:24:05;;;;;;;4.65;3.37;;;;;;;23.67;37.93;101414.21;1736766;81;21088;-66
2021/10/25 11:26:40;;;;;;;5.15;3.60;;;;;;;23.77;37.85;101416.47;1729084;80;21202;-65
2021/10/25 11:29:25;;;;;;;3.95;3.30;;;;;;;23.87;37.80;101414.68;1727665;81;21101;-66
2021/10/25 11:32:02;;;;;;;4.58;3.33;;;;;;;23.93;37.69;101407.03;1721962;81;22452;-64
2021/10/25 11:34:35;;;;;;;3.80;2.98;;;;;;;24.05;37.63;101409.89;1712148;81;21076;-66
2021/10/25 11:37:09;;;;;;;4.37;3.33;;;;;;;24.13;37.55;101411.84;1743668;80;21054;-64
2021/10/25 11:39:50;;;;;;;3.42;3.05;;;;;;;24.24;37.52;101408.11;1723228;81;21069;-67
2021/10/25 11:42:18;;;;;;;4.30;3.40;;;;;;;24.32;37.48;101403.80;1735139;80;21655;-66
2021/10/25 11:44:45;;;;;;;4.45;2.98;;;;;;;24.42;37.38;101403.32;1794603;79;21104;-66
2021/10/25 11:47:27;;;;;;;4.00;3.55;;;;;;;24.50;37.33;101393.00;1786088;78;21643;-66
2021/10/25 11:50:07;;;;;;;3.80;3.42;;;;;;;24.60;37.24;101390.36;1775644;78;20997;-65
2021/10/25 11:52:48;;;;;;;4.10;3.67;;;;;;;24.69;37.14;101398.55;1776541;80;21072;-67
2021/10/25 11:55:17;;;;;;;3.87;3.25;;;;;;;24.78;37.04;101390.93;1766708;79;21058;-64
2021/10/25 11:57:49;;;;;;;3.37;3.02;;;;;;;24.88;36.92;101377.69;1793565;78;21182;-65
2021/10/25 12:03:26;;;;;;;3.42;3.12;;;;;;;25.08;36.83;101370.69;1739400;78;21584;-65
2021/10/25 12:05:53;;;;;;;3.25;2.95;;;;;;;25.21;36.70;101375.98;1761676;79;21061;-65
2021/10/25 12:08:20;;;;;;;3.72;3.12;;;;;;;25.35;36.58;101367.71;1793610;78;21073;-65
2021/10/25 12:10:48;;;;;;;3.75;3.10;;;;;;;25.56;36.44;101366.42;1785707;79;22594;-66
2021/10/25 12:13:15;;;;;;;3.62;2.83;;;;;;;25.87;36.14;101362.66;1786377;78;21053;-65
2021/10/25 12:16:02;;;;;;;3.25;2.95;;;;;;;26.24;35.83;101362.56;1772600;80;21085;-67
2021/10/25 12:18:27;;;;;;;3.20;2.80;;;;;;;26.64;35.39;101355.97;1767735;79;21682;-66
2021/10/25 12:20:54;;;;;;;5.70;2.95;;;;;;;27.13;34.90;101354.89;1764344;79;21067;-65
2021/10/25 12:23:23;;;;;;;4.25;3.02;;;;;;;27.49;34.54;101351.05;1761472;80;21152;-65
2021/10/25 12:25:59;;;;;;;4.05;3.22;;;;;;;27.82;34.14;101349.51;1765360;80;21038;-66
2021/10/25 12:28:26;;;;;;;3.08;2.75;;;;;;;28.12;33.80;101349.25;1767728;79;21035;-66
2021/10/25 12:31:07;;;;;;;3.58;3.00;;;;;;;28.41;33.49;101347.31;1759575;80;21064;-65
2021/10/25 12:33:38;;;;;;;3.20;2.90;;;;;;;28.66;33.15;101344.70;1753809;79;21021;-66
2021/10/25 12:36:19;;;;;;;3.00;2.77;;;;;;;28.91;32.87;101344.79;1762149;80;21123;-66
2021/10/25 12:38:49;;;;;;;3.65;2.85;;;;;;;29.11;32.58;101336.02;1724811;80;21058;-67
2021/10/25 12:41:16;;;;;;;2.83;2.50;;;;;;;29.26;32.35;101326.67;1771923;79;21554;-65
2021/10/25 12:43:54;;;;;;;3.10;2.65;;;;;;;29.32;32.18;101327.05;1761549;81;21721;-65
2021/10/25 12:46:22;;;;;;;3.90;3.12;;;;;;;29.26;32.15;101321.75;1741711;80;21022;-64
2021/10/25 12:48:51;;;;;;;2.87;2.50;;;;;;;29.09;32.20;101321.25;1746013;79;21087;-66
2021/10/25 12:51:19;;;;;;;3.27;2.80;;;;;;;28.91;32.36;101325.64;1772253;79;21192;-66
2021/10/25 12:53:48;;;;;;;3.02;2.77;;;;;;;28.72;32.50;101327.83;1768287;79;21046;-66
2021/10/25 12:56:26;;;;;;;2.60;2.40;;;;;;;28.53;32.66;101328.63;1760734;79;21065;-64
2021/10/25 12:59:03;;;;;;;3.47;2.72;;;;;;;28.36;32.84;101330.00;1765543;79;21603;-66
2021/10/25 13:01:30;;;;;;;2.87;2.60;;;;;;;28.18;33.04;101328.31;1692176;81;21990;-64
2021/10/25 13:03:58;;;;;;;3.58;3.00;;;;;;;28.00;33.21;101325.28;1794659;78;21017;-65
2021/10/25 13:06:31;;;;;;;2.67;2.47;;;;;;;27.81;33.39;101324.08;1785528;78;21109;-65
2021/10/25 13:09:06;;;;;;;3.33;3.02;;;;;;;27.63;33.55;101318.84;1794807;78;21052;-66
2021/10/25 13:11:32;;;;;;;2.80;2.55;;;;;;;27.44;33.73;101327.20;1789730;78;21054;-65
2021/10/25 13:14:00;;;;;;;2.70;2.27;;;;;;;27.27;33.93;101322.20;1777363;78;21072;-64
2021/10/25 13:16:32;;;;;;;3.45;2.83;;;;;;;27.17;34.02;101321.97;1780958;78;21060;-65
2021/10/25 13:18:59;;;;;;;2.83;2.62;;;;;;;27.12;34.10;101318.61;1763776;78;21512;-65
2021/10/25 13:21:25;;;;;;;3.65;2.85;;;;;;;27.08;34.17;101317.41;1791771;78;21674;-64
2021/10/25 13:23:51;;;;;;;3.80;2.65;;;;;;;27.04;34.21;101314.36;1788025;78;21599;-66
2021/10/25 13:26:18;;;;;;;3.10;2.47;;;;;;;27.00;34.28;101313.69;1758878;79;21077;-64
2021/10/25 13:28:45;;;;;;;2.75;2.45;;;;;;;26.94;34.32;101312.75;1749572;80;21046;-66
2021/10/25 13:31:11;;;;;;;2.83;2.52;;;;;;;26.89;34.42;101311.30;1781476;78;21050;-64
2021/10/25 13:33:40;;;;;;;2.85;2.55;;;;;;;26.84;34.48;101307.08;1753867;79;21061;-65
2021/10/25 13:36:06;;;;;;;3.00;2.70;;;;;;;26.77;34.57;101309.94;1651976;80;21582;-64
2021/10/25 13:38:32;;;;;;;2.85;2.52;;;;;;;26.72;34.66;101303.00;1762217;80;21132;-64
2021/10/25 13:41:01;;;;;;;2.55;2.35;;;;;;;26.66;34.72;101299.33;1710541;81;21089;-65
2021/10/25 13:43:27;;;;;;;3.25;2.77;;;;;;;26.62;34.80;101298.69;1749943;80;21219;-65
2021/10/25 13:45:54;;;;;;;3.33;3.02;;;;;;;26.56;34.87;101295.49;1692438;82;21592;-65
2021/10/25 13:48:20;;;;;;;5.08;2.70;;;;;;;26.50;34.92;101290.45;1702210;81;21639;-65
2021/10/25 13:50:46;;;;;;;2.60;2.40;;;;;;;26.44;35.00;101296.85;1706098;82;21059;-64
2021/10/25 13:53:13;;;;;;;2.67;2.47;;;;;;;26.36;35.06;101287.13;1737564;80;21006;-66
2021/10/25 13:55:40;;;;;;;2.50;2.30;;;;;;;26.28;35.10;101289.67;1741149;80;21125;-66
2021/10/25 13:58:06;;;;;;;3.98;2.85;;;;;;;26.20;35.17;101285.94;1754101;78;21514;-64
2021/10/25 14:00:33;;;;;;;2.50;2.30;;;;;;;26.11;35.24;101284.61;1764474;78;21005;-64
2021/10/25 14:03:00;;;;;;;2.42;2.22;;;;;;;26.02;35.32;101283.28;1741211;80;21472;-64
2021/10/25 14:05:27;;;;;;;2.50;2.27;;;;;;;25.92;35.43;101292.02;1772771;78;21387;-65
2021/10/25 14:07:55;;;;;;;2.70;2.30;;;;;;;25.83;35.50;101289.33;1777871;78;21064;-66
2021/10/25 14:12:49;;;;;;;2.92;2.42;;;;;;;25.62;35.63;101290.13;1752665;78;21025;-64
2021/10/25 14:15:27;;;;;;;2.60;2.40;;;;;;;25.53;35.73;101292.05;1768627;78;21795;-63
2021/10/25 14:17:52;;;;;;;2.65;2.45;;;;;;;25.42;35.76;101289.05;1744510;80;21015;-64
2021/10/25 14:20:23;;;;;;;2.92;2.62;;;;;;;25.31;35.82;101288.45;1764471;78;21137;-63
2021/10/25 14:22:50;;;;;;;2.90;2.60;;;;;;;25.21;35.91;101279.98;1753980;79;21549;-64
2021/10/25 14:25:16;;;;;;;2.85;2.62;;;;;;;25.10;35.95;101282.39;1743921;80;21057;-63
2021/10/25 14:27:43;;;;;;;2.67;2.40;;;;;;;25.01;36.01;101278.84;1776990;78;21115;-64
2021/10/25 14:30:10;;;;;;;2.60;2.40;;;;;;;24.91;36.08;101280.19;1750130;79;21036;-63
2021/10/25 14:32:36;;;;;;;3.17;2.83;;;;;;;24.82;36.07;101282.93;1776778;78;21013;-62
2021/10/25 14:35:04;;;;;;;3.20;2.60;;;;;;;24.71;36.07;101280.95;1774039;79;21066;-64
2021/10/25 14:37:34;;;;;;;2.72;2.52;;;;;;;24.60;35.98;101277.07;1759420;80;21502;-64
2021/10/25 14:40:09;;;;;;;2.90;2.60;;;;;;;24.50;35.95;101270.77;1768660;79;21981;-62
2021/10/25 14:42:34;;;;;;;4.30;2.98;;;;;;;24.41;35.90;101278.88;1772758;78;21061;-64
2021/10/25 14:45:20;;;;;;;2.75;2.45;;;;;;;24.29;35.93;101273.34;1763989;79;21076;-65
2021/10/25 14:53:24;;;;;;;4.92;3.25;;;;;;;23.93;36.16;101275.40;1742909;80;21160;-62
2021/10/25 14:58:26;;;;;;;3.25;2.95;;;;;;;23.68;36.30;101277.53;1755006;80;21062;-62
2021/10/25 15:00:53;;;;;;;4.08;3.00;;;;;;;23.57;36.34;101289.06;1743579;80;21703;-62
2021/10/25 15:03:22;;;;;;;3.45;3.15;;;;;;;23.48;36.37;101294.42;1741140;81;21098;-63
2021/10/25 15:05:53;;;;;;;4.42;3.65;;;;;;;23.36;36.42;101291.56;1726191;80;22384;-63
2021/10/25 15:08:23;;;;;;;5.83;3.40;;;;;;;23.27;36.41;101289.59;1757114;80;21142;-62
2021/10/25 15:10:51;;;;;;;4.95;3.95;;;;;;;23.18;36.50;101290.91;1730154;80;21154;-62
2021/10/25 15:13:17;;;;;;;3.62;2.90;;;;;;;23.08;36.54;101296.78;1739187;80;21025;-61